Time;durP1;ratioP1;P1;durP2;ratioP2;P2;SDS_P1;SDS_P2;PMS_P1;PMS_P2;Temp;Humidity;BMP_temperature;BMP_pressure;BME280_temperature;BME280_humidity;BME280_pressure;Samples;Min_cycle;Max_cycle;Signal;HPM_P1;HPM_P2
2024/03/29 00:02:01;;;;;;;7.38;1.95;;;10.10;75.10;;;;;;5076054;28;20032;-76
2024/03/29 00:04:27;;;;;;;11.48;2.45;;;10.10;75.00;;;;;;5085512;28;20524;-74
2024/03/29 00:06:52;;;;;;;9.95;2.20;;;10.10;74.90;;;;;;5042026;28;20634;-74
2024/03/29 00:09:18;;;;;;;6.35;1.88;;;10.20;74.90;;;;;;5076467;28;20035;-75
2024/03/29 00:11:44;;;;;;;6.60;1.95;;;10.20;74.70;;;;;;5067733;28;20031;-76
2024/03/29 00:14:09;;;;;;;7.03;2.28;;;10.20;74.70;;;;;;5065988;28;20025;-74
2024/03/29 00:16:35;;;;;;;8.15;2.50;;;10.20;74.60;;;;;;5066349;28;20040;-76
2024/03/29 00:19:00;;;;;;;7.47;2.30;;;10.30;74.50;;;;;;5072443;28;20056;-75
2024/03/29 00:21:26;;;;;;;9.48;2.13;;;10.30;74.30;;;;;;5075119;28;20096;-74
2024/03/29 00:23:52;;;;;;;9.05;2.17;;;10.30;74.10;;;;;;5078964;28;20059;-75
2024/03/29 00:26:17;;;;;;;7.22;2.20;;;10.30;73.90;;;;;;5072753;28;20052;-74
2024/03/29 00:28:43;;;;;;;8.35;2.00;;;10.30;74.00;;;;;;5076091;28;20062;-75
2024/03/29 00:31:09;;;;;;;7.25;2.00;;;10.40;73.70;;;;;;5076043;28;21086;-75
2024/03/29 00:33:35;;;;;;;10.65;2.22;;;10.40;73.60;;;;;;5076626;28;20857;-74
2024/03/29 00:36:00;;;;;;;6.40;2.22;;;10.30;73.60;;;;;;5052480;28;20051;-74
2024/03/29 00:38:26;;;;;;;8.50;2.15;;;10.30;73.60;;;;;;5066881;28;20044;-76
2024/03/29 00:40:52;;;;;;;7.32;2.22;;;10.40;73.50;;;;;;5079470;28;20040;-74
2024/03/29 00:43:17;;;;;;;7.53;2.10;;;10.40;73.40;;;;;;5077325;28;20026;-76
2024/03/29 00:45:44;;;;;;;10.63;2.42;;;10.40;73.20;;;;;;5074824;28;20581;-77
2024/03/29 00:48:09;;;;;;;7.47;2.22;;;10.40;73.20;;;;;;5056336;28;20036;-75
2024/03/29 00:50:37;;;;;;;5.80;2.00;;;10.40;73.10;;;;;;5066223;28;20105;-75
2024/03/29 00:53:04;;;;;;;6.95;1.98;;;10.40;73.10;;;;;;5075538;28;20014;-75
2024/03/29 00:55:30;;;;;;;5.32;2.10;;;10.50;73.10;;;;;;5071631;28;20556;-76
2024/03/29 00:57:55;;;;;;;11.65;2.42;;;10.40;73.00;;;;;;5070972;28;20054;-75
2024/03/29 01:00:21;;;;;;;7.18;2.25;;;10.50;72.70;;;;;;5072540;28;20028;-76
2024/03/29 01:02:47;;;;;;;8.55;2.60;;;10.50;72.80;;;;;;5072163;28;20077;-76
2024/03/29 01:05:12;;;;;;;9.98;2.90;;;10.50;72.80;;;;;;5057240;28;20782;-74
2024/03/29 01:07:40;;;;;;;6.35;1.77;;;10.40;72.80;;;;;;5072683;28;20061;-74
2024/03/29 01:10:07;;;;;;;9.18;2.00;;;10.50;72.50;;;;;;5083051;28;20295;-77
2024/03/29 01:12:33;;;;;;;8.45;1.85;;;10.50;72.40;;;;;;5077961;28;20060;-74
2024/03/29 01:14:59;;;;;;;6.35;2.08;;;10.50;72.50;;;;;;5074446;28;20101;-76
2024/03/29 01:17:24;;;;;;;7.55;1.95;;;10.50;72.40;;;;;;5075519;28;20166;-75
2024/03/29 01:19:50;;;;;;;8.85;2.63;;;10.50;72.60;;;;;;5083918;28;20098;-74
2024/03/29 01:22:16;;;;;;;7.20;1.88;;;10.50;72.20;;;;;;5074760;28;20681;-75
2024/03/29 01:24:41;;;;;;;5.70;1.90;;;10.50;72.40;;;;;;5080574;28;20489;-74
2024/03/29 01:27:07;;;;;;;7.68;1.77;;;10.50;72.50;;;;;;5079443;28;20058;-77
2024/03/29 01:29:32;;;;;;;6.28;1.92;;;10.50;72.70;;;;;;5070509;28;20094;-74
2024/03/29 01:31:58;;;;;;;6.63;2.10;;;10.50;72.80;;;;;;5062086;28;20035;-76
2024/03/29 01:34:24;;;;;;;8.00;1.98;;;10.50;72.90;;;;;;5065940;28;20719;-76
2024/03/29 01:36:50;;;;;;;6.03;1.92;;;10.50;72.70;;;;;;5075303;28;20032;-76
2024/03/29 01:39:18;;;;;;;7.53;2.08;;;10.40;72.50;;;;;;5063812;28;20052;-77
2024/03/29 01:41:44;;;;;;;7.57;1.70;;;10.40;72.70;;;;;;5072302;28;20127;-74
2024/03/29 01:44:10;;;;;;;6.50;1.83;;;10.40;72.90;;;;;;5071531;28;20024;-76
2024/03/29 01:46:36;;;;;;;7.57;2.20;;;10.40;72.90;;;;;;5072514;28;20043;-74
2024/03/29 01:49:03;;;;;;;8.10;1.70;;;10.40;73.10;;;;;;5063736;28;20036;-75
2024/03/29 01:51:30;;;;;;;4.85;1.80;;;10.30;73.30;;;;;;5065747;28;20082;-74
2024/03/29 01:53:56;;;;;;;6.82;1.60;;;10.40;73.30;;;;;;5056256;28;20541;-74
2024/03/29 01:56:23;;;;;;;6.05;2.05;;;10.30;73.50;;;;;;5076590;28;20448;-76
2024/03/29 01:58:51;;;;;;;6.00;1.60;;;10.40;73.60;;;;;;5075872;28;20014;-75
2024/03/29 02:01:18;;;;;;;6.10;1.95;;;10.30;73.80;;;;;;5056900;28;20029;-75
2024/03/29 02:03:43;;;;;;;4.80;1.60;;;10.20;73.70;;;;;;5071266;28;20020;-75
2024/03/29 02:06:10;;;;;;;4.47;1.60;;;10.30;73.30;;;;;;5072688;28;20094;-78
2024/03/29 02:08:36;;;;;;;6.22;1.70;;;10.30;73.40;;;;;;5054065;28;20024;-77
2024/03/29 02:11:03;;;;;;;3.80;1.50;;;10.30;73.30;;;;;;5077887;28;20047;-73
2024/03/29 02:13:29;;;;;;;2.90;1.33;;;10.30;73.50;;;;;;5077207;28;20066;-76
2024/03/29 02:15:55;;;;;;;4.75;1.25;;;10.30;73.40;;;;;;5076937;28;20846;-76
2024/03/29 02:18:20;;;;;;;4.10;1.30;;;10.30;73.50;;;;;;5070086;28;20686;-77
2024/03/29 02:20:46;;;;;;;4.57;1.40;;;10.20;73.80;;;;;;5076193;28;20579;-76
2024/03/29 02:23:22;;;;;;;3.20;1.30;;;10.20;74.00;;;;;;5079328;28;20095;-76
2024/03/29 02:25:48;;;;;;;3.05;1.00;;;10.20;74.30;;;;;;5068570;28;20040;-74
2024/03/29 02:28:13;;;;;;;5.07;1.65;;;10.20;74.60;;;;;;5058952;28;20020;-74
2024/03/29 02:30:39;;;;;;;3.08;1.33;;;10.10;74.90;;;;;;5070326;28;20052;-77
2024/03/29 02:33:05;;;;;;;2.95;1.27;;;10.10;75.40;;;;;;5087518;28;20153;-74
2024/03/29 02:35:30;;;;;;;3.88;1.30;;;10.10;75.80;;;;;;5080496;28;20105;-73
2024/03/29 02:37:56;;;;;;;4.38;1.48;;;10.10;76.10;;;;;;5076693;28;20044;-77
2024/03/29 02:40:22;;;;;;;3.60;1.50;;;10.10;76.80;;;;;;5081035;28;20380;-76
2024/03/29 02:42:48;;;;;;;3.63;1.45;;;10.00;77.30;;;;;;5076059;28;20025;-76
2024/03/29 02:45:14;;;;;;;5.63;1.33;;;10.00;78.00;;;;;;5078630;28;20036;-77
2024/03/29 02:47:40;;;;;;;5.18;1.60;;;9.90;78.60;;;;;;5073628;28;20032;-78
2024/03/29 02:50:09;;;;;;;3.10;1.05;;;9.80;79.00;;;;;;5073034;28;20023;-77
2024/03/29 02:52:34;;;;;;;4.07;1.40;;;9.80;79.70;;;;;;5081440;28;20016;-77
2024/03/29 02:55:00;;;;;;;4.50;1.52;;;9.70;80.30;;;;;;5078066;28;20027;-77
2024/03/29 02:57:26;;;;;;;3.88;1.20;;;9.70;81.00;;;;;;5075038;28;20036;-77
2024/03/29 02:59:51;;;;;;;5.72;1.60;;;9.60;81.70;;;;;;5072578;28;20021;-76
2024/03/29 03:02:17;;;;;;;3.50;1.48;;;9.50;82.20;;;;;;5078297;28;20059;-76
2024/03/29 03:04:42;;;;;;;4.57;1.90;;;9.40;82.80;;;;;;5074121;28;20126;-75
2024/03/29 03:12:37;;;;;;;6.30;1.63;;;9.20;84.60;;;;;;5069494;28;20437;-76
2024/03/29 03:15:03;;;;;;;5.18;1.88;;;9.20;85.70;;;;;;5075984;28;20473;-75
2024/03/29 03:17:29;;;;;;;5.75;1.98;;;9.10;86.70;;;;;;5074015;28;20028;-76
2024/03/29 03:19:55;;;;;;;7.32;2.60;;;9.00;87.40;;;;;;5048271;28;20012;-77
2024/03/29 03:22:20;;;;;;;7.80;1.73;;;9.00;87.50;;;;;;5066750;28;20507;-76
2024/03/29 03:24:46;;;;;;;3.72;1.70;;;8.90;87.70;;;;;;5080225;28;20063;-77
2024/03/29 03:27:11;;;;;;;5.78;1.90;;;8.90;87.90;;;;;;5077806;28;20038;-77
2024/03/29 03:29:37;;;;;;;5.75;2.38;;;8.80;88.00;;;;;;5072838;28;20027;-77
2024/03/29 03:32:03;;;;;;;5.45;1.50;;;8.80;88.10;;;;;;5071377;28;20729;-77
2024/03/29 03:34:30;;;;;;;5.57;1.77;;;8.80;88.10;;;;;;5077388;28;20020;-78
2024/03/29 03:36:55;;;;;;;5.07;1.38;;;8.80;88.00;;;;;;5066529;28;20032;-76
2024/03/29 03:39:22;;;;;;;7.68;1.70;;;8.80;88.10;;;;;;5075121;28;20035;-76
2024/03/29 03:41:48;;;;;;;5.40;2.10;;;8.80;88.30;;;;;;5061357;28;20724;-76
2024/03/29 03:44:13;;;;;;;7.85;2.38;;;8.70;88.40;;;;;;5076265;28;20027;-75
2024/03/29 03:46:39;;;;;;;5.53;2.10;;;8.70;88.50;;;;;;5067425;28;20044;-77
2024/03/29 03:49:04;;;;;;;6.85;1.70;;;8.80;88.80;;;;;;5079624;28;20081;-76
2024/03/29 03:51:30;;;;;;;7.63;2.78;;;8.80;88.90;;;;;;5050428;28;20051;-77
2024/03/29 03:53:56;;;;;;;8.43;2.10;;;8.70;89.00;;;;;;5071009;28;20028;-77
2024/03/29 03:56:22;;;;;;;7.25;2.13;;;8.70;89.40;;;;;;5063988;28;20040;-75
2024/03/29 03:58:47;;;;;;;11.23;2.67;;;8.70;89.50;;;;;;5071645;28;20029;-77
2024/03/29 04:01:13;;;;;;;8.82;2.53;;;8.70;89.50;;;;;;5065237;28;20032;-74
2024/03/29 04:03:39;;;;;;;8.07;2.75;;;8.70;89.70;;;;;;5063171;28;20039;-76
2024/03/29 04:06:06;;;;;;;8.23;2.80;;;8.60;89.80;;;;;;5068353;28;20481;-77
2024/03/29 04:08:32;;;;;;;9.18;3.20;;;8.60;90.00;;;;;;5071089;28;20675;-77
2024/03/29 04:10:57;;;;;;;10.98;3.03;;;8.60;90.20;;;;;;5071489;28;20055;-77
2024/03/29 04:13:23;;;;;;;7.68;2.72;;;8.50;90.30;;;;;;5065459;28;20063;-76
2024/03/29 04:15:49;;;;;;;11.85;3.35;;;8.50;90.30;;;;;;5070472;28;20772;-76
2024/03/29 04:18:14;;;;;;;9.73;2.92;;;8.50;90.40;;;;;;5065932;28;20012;-77
2024/03/29 04:20:40;;;;;;;7.95;3.10;;;8.50;90.50;;;;;;5064809;28;20028;-76
2024/03/29 04:23:06;;;;;;;8.90;2.80;;;8.50;90.50;;;;;;5070019;28;20704;-75
2024/03/29 04:25:32;;;;;;;8.57;2.85;;;8.50;90.30;;;;;;5060006;28;20052;-76
2024/03/29 04:27:58;;;;;;;9.82;2.60;;;8.50;90.20;;;;;;5080252;28;20024;-74
2024/03/29 04:30:24;;;;;;;9.68;2.78;;;8.50;90.30;;;;;;5073156;28;20491;-75
2024/03/29 04:32:50;;;;;;;8.07;2.92;;;8.50;90.20;;;;;;5060757;28;20024;-75
2024/03/29 04:35:15;;;;;;;8.23;2.78;;;8.50;90.20;;;;;;5074238;28;20024;-74
2024/03/29 04:37:41;;;;;;;10.32;2.90;;;8.50;90.20;;;;;;5070982;28;20024;-75
2024/03/29 04:40:07;;;;;;;8.13;2.95;;;8.50;90.10;;;;;;5065625;28;20106;-76
2024/03/29 04:42:33;;;;;;;8.82;2.58;;;8.50;90.10;;;;;;5075199;28;20032;-74
2024/03/29 04:44:59;;;;;;;8.38;2.55;;;8.50;90.10;;;;;;5073306;28;20065;-76
2024/03/29 04:47:24;;;;;;;8.43;2.47;;;8.40;89.90;;;;;;5070363;28;20025;-76
2024/03/29 04:49:50;;;;;;;8.02;2.65;;;8.40;90.10;;;;;;5069659;28;20016;-74
2024/03/29 04:52:16;;;;;;;7.20;2.15;;;8.40;90.10;;;;;;5075366;28;20040;-74
2024/03/29 04:54:43;;;;;;;8.25;2.22;;;8.40;90.00;;;;;;5072189;28;20032;-76
2024/03/29 04:57:09;;;;;;;5.65;2.10;;;8.50;90.10;;;;;;5069649;28;20032;-74
2024/03/29 04:59:35;;;;;;;6.47;2.50;;;8.40;89.80;;;;;;5073072;28;20035;-74
2024/03/29 05:02:01;;;;;;;6.57;2.00;;;8.40;89.80;;;;;;5057343;28;20032;-75
2024/03/29 05:04:28;;;;;;;6.07;1.80;;;8.40;89.80;;;;;;5070990;28;20031;-75
2024/03/29 05:06:55;;;;;;;5.18;2.03;;;8.40;89.50;;;;;;5071127;28;20064;-74
2024/03/29 05:09:20;;;;;;;7.15;2.20;;;8.40;89.40;;;;;;5070504;28;20024;-75
2024/03/29 05:11:46;;;;;;;6.45;1.92;;;8.40;89.40;;;;;;5070209;28;20086;-76
2024/03/29 05:14:14;;;;;;;5.60;2.03;;;8.40;89.30;;;;;;5064342;28;20658;-74
2024/03/29 05:16:41;;;;;;;7.50;2.13;;;8.50;89.30;;;;;;5056551;28;20469;-74
2024/03/29 05:19:06;;;;;;;5.57;2.00;;;8.40;89.20;;;;;;5084959;28;20023;-76
2024/03/29 05:21:32;;;;;;;9.10;2.35;;;8.40;89.20;;;;;;5086993;28;20572;-75
2024/03/29 05:23:58;;;;;;;6.57;2.22;;;8.50;89.10;;;;;;5073574;28;20050;-76
2024/03/29 05:26:24;;;;;;;5.45;1.90;;;8.50;89.20;;;;;;5068658;28;20385;-74
2024/03/29 05:28:49;;;;;;;6.40;2.35;;;8.60;89.20;;;;;;5082042;28;20570;-76
2024/03/29 05:31:15;;;;;;;8.35;2.60;;;8.50;89.10;;;;;;5063988;28;20033;-74
2024/03/29 05:33:41;;;;;;;6.60;2.38;;;8.60;89.10;;;;;;5074835;28;20816;-77
2024/03/29 05:36:08;;;;;;;7.00;2.20;;;8.60;89.10;;;;;;5066168;28;20029;-77
2024/03/29 05:38:34;;;;;;;8.43;2.65;;;8.60;89.10;;;;;;5072012;28;20318;-76
2024/03/29 05:41:00;;;;;;;8.40;2.55;;;8.60;89.20;;;;;;5070374;28;20020;-75
2024/03/29 05:43:25;;;;;;;7.30;2.47;;;8.60;89.30;;;;;;5076467;28;20091;-75
2024/03/29 05:45:54;;;;;;;7.30;2.45;;;8.60;89.30;;;;;;5060195;28;20033;-74
2024/03/29 05:48:20;;;;;;;4.80;2.25;;;8.60;89.50;;;;;;5069759;28;20024;-75
2024/03/29 05:50:45;;;;;;;7.90;2.60;;;8.60;89.60;;;;;;5067739;28;20318;-76
2024/03/29 05:53:11;;;;;;;6.68;2.75;;;8.60;89.70;;;;;;5069557;28;20064;-77
2024/03/29 05:55:37;;;;;;;7.78;2.70;;;8.60;89.90;;;;;;5050448;28;20497;-76
2024/03/29 05:58:03;;;;;;;7.70;2.58;;;8.60;90.10;;;;;;5070816;28;20509;-77
2024/03/29 06:00:29;;;;;;;8.43;2.80;;;8.70;90.00;;;;;;5069654;28;20041;-75
2024/03/29 06:02:54;;;;;;;12.15;3.53;;;8.70;90.20;;;;;;5071299;28;20774;-76
2024/03/29 06:05:20;;;;;;;9.73;3.70;;;8.60;90.30;;;;;;5072672;28;20127;-74
2024/03/29 06:07:46;;;;;;;9.65;3.53;;;8.70;90.30;;;;;;5070464;28;20047;-74
2024/03/29 06:10:12;;;;;;;9.05;3.17;;;8.70;90.50;;;;;;5089007;28;20051;-74
2024/03/29 06:12:38;;;;;;;10.07;2.60;;;8.70;90.50;;;;;;5071460;28;21006;-76
2024/03/29 06:17:49;;;;;;;9.85;2.85;;;8.70;90.30;;;;;;5072360;28;20044;-74
2024/03/29 06:20:15;;;;;;;9.48;2.63;;;8.80;90.20;;;;;;5081783;28;20011;-73
2024/03/29 06:22:40;;;;;;;8.32;3.30;;;8.80;90.10;;;;;;5076093;28;20036;-77
2024/03/29 06:25:06;;;;;;;8.13;2.92;;;8.90;90.30;;;;;;5066803;28;20040;-74
2024/03/29 06:27:33;;;;;;;7.93;3.28;;;8.80;90.20;;;;;;5071821;28;20086;-75
2024/03/29 06:29:59;;;;;;;10.80;3.47;;;8.90;90.10;;;;;;5065266;28;20103;-74
2024/03/29 06:32:24;;;;;;;10.43;3.03;;;8.90;90.20;;;;;;5074916;28;20030;-74
2024/03/29 06:34:50;;;;;;;11.05;3.58;;;9.00;90.30;;;;;;5067136;28;20031;-75
2024/03/29 06:37:16;;;;;;;8.77;3.40;;;9.10;90.00;;;;;;5068985;28;20761;-75
2024/03/29 06:39:43;;;;;;;9.75;4.20;;;8.90;90.10;;;;;;5070044;28;20023;-75
2024/03/29 06:42:09;;;;;;;13.20;3.83;;;8.90;90.20;;;;;;5076016;28;20071;-76
2024/03/29 06:44:36;;;;;;;8.45;4.18;;;8.90;90.20;;;;;;5074321;28;20025;-75
2024/03/29 06:47:02;;;;;;;7.57;3.55;;;9.00;90.10;;;;;;5074054;28;20044;-82
2024/03/29 06:49:28;;;;;;;8.65;3.60;;;8.90;90.10;;;;;;5071497;28;20055;-85
2024/03/29 06:51:55;;;;;;;8.25;3.28;;;8.90;90.20;;;;;;5075352;28;20101;-82
2024/03/29 06:54:26;;;;;;;9.35;3.58;;;8.90;90.40;;;;;;5081259;28;20024;-83
2024/03/29 06:56:52;;;;;;;6.80;3.28;;;9.00;90.30;;;;;;5079087;28;20027;-82
2024/03/29 06:59:19;;;;;;;6.90;3.15;;;9.10;90.20;;;;;;5070376;28;20044;-79
2024/03/29 07:01:44;;;;;;;12.77;4.10;;;9.10;90.30;;;;;;5078467;28;20123;-82
2024/03/29 07:04:10;;;;;;;8.07;3.45;;;9.10;90.10;;;;;;5078382;28;20091;-85
2024/03/29 07:06:38;;;;;;;9.90;3.42;;;9.10;90.10;;;;;;5082780;28;20308;-83
2024/03/29 07:09:04;;;;;;;10.63;3.63;;;9.20;89.90;;;;;;5080905;28;20047;-82
2024/03/29 07:11:30;;;;;;;7.30;2.67;;;9.30;90.00;;;;;;5072054;28;20111;-85
2024/03/29 07:13:55;;;;;;;6.95;3.00;;;9.40;89.80;;;;;;5076688;28;20115;-86
2024/03/29 07:16:21;;;;;;;7.75;2.67;;;9.50;89.40;;;;;;5077622;28;20719;-84
2024/03/29 07:18:47;;;;;;;8.35;2.63;;;9.60;89.40;;;;;;5084863;28;20043;-83
2024/03/29 07:21:12;;;;;;;4.30;1.88;;;9.70;88.80;;;;;;5080239;28;20028;-87
2024/03/29 07:23:38;;;;;;;8.57;2.35;;;9.60;88.70;;;;;;5072710;28;20024;-83
2024/03/29 07:26:05;;;;;;;6.15;2.20;;;9.70;88.70;;;;;;5073837;28;20085;-85
2024/03/29 07:28:31;;;;;;;6.20;2.28;;;9.80;88.70;;;;;;5083231;28;20169;-83
2024/03/29 07:30:57;;;;;;;4.53;2.00;;;9.80;88.40;;;;;;5078685;28;20111;-82
2024/03/29 07:33:28;;;;;;;6.78;2.40;;;9.80;88.30;;;;;;5064473;28;20023;-82
2024/03/29 07:35:54;;;;;;;6.18;2.10;;;9.80;88.30;;;;;;5076238;28;20021;-85
2024/03/29 07:38:20;;;;;;;6.30;2.22;;;10.00;88.40;;;;;;5086042;28;20088;-84
2024/03/29 07:40:54;;;;;;;8.05;2.83;;;9.90;88.10;;;;;;5070972;28;20059;-83
2024/03/29 07:43:21;;;;;;;7.82;2.38;;;10.00;88.00;;;;;;5057715;28;20394;-81
2024/03/29 07:45:47;;;;;;;8.23;2.38;;;10.10;87.70;;;;;;5066091;28;20493;-79
2024/03/29 07:48:15;;;;;;;4.53;1.98;;;10.10;87.70;;;;;;5074773;28;20103;-84
2024/03/29 07:50:41;;;;;;;7.55;2.75;;;10.10;87.40;;;;;;5071811;28;20028;-82
2024/03/29 07:53:07;;;;;;;8.88;2.80;;;10.00;87.50;;;;;;5075542;28;20748;-82
2024/03/29 07:55:35;;;;;;;6.25;2.65;;;10.10;88.00;;;;;;5076819;28;20026;-81
2024/03/29 07:58:01;;;;;;;10.13;2.80;;;10.10;87.90;;;;;;5077195;28;20055;-80
2024/03/29 08:00:27;;;;;;;7.80;2.47;;;10.20;87.60;;;;;;5075910;28;21044;-82
2024/03/29 08:02:53;;;;;;;6.03;2.72;;;10.20;87.30;;;;;;5075318;28;20032;-84
2024/03/29 08:05:23;;;;;;;6.80;3.00;;;10.10;87.30;;;;;;5078636;28;20016;-83
2024/03/29 08:07:48;;;;;;;6.90;2.90;;;10.20;87.40;;;;;;5085516;28;20302;-83
2024/03/29 08:10:14;;;;;;;8.07;3.00;;;10.20;87.30;;;;;;5059888;28;20057;-86
2024/03/29 08:12:40;;;;;;;8.25;3.08;;;10.10;87.40;;;;;;5079083;28;20030;-82
2024/03/29 08:15:07;;;;;;;9.88;3.28;;;10.10;87.30;;;;;;5077398;28;20013;-86
2024/03/29 08:17:33;;;;;;;7.82;3.75;;;10.10;87.30;;;;;;5078954;28;20039;-83
2024/03/29 08:19:58;;;;;;;7.35;3.28;;;10.10;87.70;;;;;;5070444;28;20028;-82
2024/03/29 08:22:24;;;;;;;8.35;3.53;;;10.20;87.70;;;;;;5080887;28;20113;-85
2024/03/29 08:24:49;;;;;;;9.18;3.47;;;10.40;87.30;;;;;;5072101;28;20139;-85
2024/03/29 08:27:15;;;;;;;8.30;3.22;;;10.40;87.00;;;;;;5076927;28;20036;-84
2024/03/29 08:29:42;;;;;;;8.60;3.70;;;10.40;86.80;;;;;;5077076;28;20020;-85
2024/03/29 08:32:10;;;;;;;10.10;4.13;;;10.50;87.00;;;;;;5082331;28;20704;-87
2024/03/29 08:34:36;;;;;;;7.15;3.42;;;10.40;86.80;;;;;;5058145;28;20024;-82
2024/03/29 08:37:04;;;;;;;7.53;3.30;;;10.40;87.10;;;;;;5075855;28;20834;-86
2024/03/29 08:39:31;;;;;;;7.85;3.78;;;10.50;86.90;;;;;;5078461;28;20033;-83
2024/03/29 08:42:04;;;;;;;7.10;3.38;;;10.60;86.80;;;;;;5053252;28;20044;-83
2024/03/29 08:44:31;;;;;;;9.13;4.20;;;10.60;86.60;;;;;;5077172;28;20016;-85
2024/03/29 08:46:58;;;;;;;8.43;3.50;;;10.60;86.50;;;;;;5085984;28;20036;-84
2024/03/29 08:49:24;;;;;;;9.43;3.35;;;10.70;86.30;;;;;;5075157;28;20027;-84
2024/03/29 08:51:50;;;;;;;7.13;3.13;;;10.70;86.30;;;;;;5073234;28;20420;-82
2024/03/29 08:54:15;;;;;;;10.80;3.22;;;10.90;85.80;;;;;;5066805;28;20016;-84
2024/03/29 08:56:41;;;;;;;6.97;3.20;;;11.10;85.30;;;;;;5066242;28;20062;-83
2024/03/29 08:59:09;;;;;;;8.05;3.08;;;11.00;84.90;;;;;;5076435;28;20028;-82
2024/03/29 09:01:37;;;;;;;8.30;3.60;;;11.10;85.00;;;;;;5077612;28;20516;-83
2024/03/29 09:04:06;;;;;;;6.63;3.10;;;11.20;84.60;;;;;;5069604;28;20101;-82
2024/03/29 09:06:33;;;;;;;6.75;2.97;;;11.20;84.40;;;;;;5068712;28;20089;-86
2024/03/29 09:08:59;;;;;;;8.00;3.35;;;11.30;84.20;;;;;;5072930;28;20093;-84
2024/03/29 09:11:25;;;;;;;7.47;3.20;;;11.40;84.20;;;;;;5066979;28;20380;-81
2024/03/29 09:13:53;;;;;;;6.70;3.00;;;11.50;84.10;;;;;;5065705;28;20229;-81
2024/03/29 09:16:19;;;;;;;6.82;3.10;;;11.60;83.80;;;;;;5064487;28;20032;-83
2024/03/29 09:18:46;;;;;;;7.28;2.83;;;11.80;83.20;;;;;;5076290;28;20413;-80
2024/03/29 09:21:12;;;;;;;5.78;2.53;;;12.20;82.00;;;;;;5070782;28;20024;-80
2024/03/29 09:23:41;;;;;;;5.63;2.70;;;12.60;81.10;;;;;;5075696;28;20054;-85
2024/03/29 09:26:07;;;;;;;3.85;2.35;;;12.90;80.00;;;;;;5075868;28;20050;-84
2024/03/29 09:28:36;;;;;;;7.45;3.00;;;13.30;79.30;;;;;;5067036;28;20468;-83
2024/03/29 09:31:02;;;;;;;5.75;2.55;;;13.40;77.90;;;;;;5072164;28;20036;-83
2024/03/29 09:33:28;;;;;;;8.52;3.25;;;13.40;77.10;;;;;;5057168;28;20380;-81
2024/03/29 09:35:54;;;;;;;6.85;2.95;;;13.20;77.80;;;;;;5068289;28;20054;-80
2024/03/29 09:38:20;;;;;;;9.75;3.67;;;13.40;78.00;;;;;;5070290;28;20117;-80
2024/03/29 09:40:46;;;;;;;6.22;2.78;;;13.60;77.80;;;;;;5072092;28;20369;-80
2024/03/29 09:43:14;;;;;;;6.50;2.83;;;13.80;76.20;;;;;;5067642;28;20032;-79
2024/03/29 09:45:40;;;;;;;7.97;2.47;;;13.80;76.00;;;;;;5068483;28;20012;-78
2024/03/29 09:48:08;;;;;;;4.22;2.60;;;13.80;75.80;;;;;;5075221;28;20123;-80
2024/03/29 09:50:36;;;;;;;5.50;2.80;;;14.00;76.30;;;;;;5071065;28;20020;-80
2024/03/29 09:53:04;;;;;;;6.80;3.17;;;14.50;75.40;;;;;;5066391;28;20074;-81
2024/03/29 09:55:30;;;;;;;6.03;2.50;;;14.70;74.20;;;;;;5064280;28;20025;-79
2024/03/29 09:57:57;;;;;;;6.00;2.50;;;14.60;74.10;;;;;;5075444;28;20043;-80
2024/03/29 10:00:23;;;;;;;5.72;2.60;;;14.70;73.80;;;;;;5066853;28;20217;-81
2024/03/29 10:02:52;;;;;;;6.05;2.45;;;14.70;73.20;;;;;;5077169;28;20551;-82
2024/03/29 10:05:18;;;;;;;6.53;2.47;;;14.80;73.10;;;;;;5070210;28;20028;-81
2024/03/29 10:07:46;;;;;;;5.05;1.98;;;15.10;72.90;;;;;;5056785;28;20036;-80
2024/03/29 10:10:12;;;;;;;4.60;2.03;;;15.10;71.90;;;;;;5065760;28;20111;-79
2024/03/29 10:12:37;;;;;;;5.43;1.85;;;15.50;71.90;;;;;;5074288;28;20841;-81
2024/03/29 10:15:18;;;;;;;5.47;2.10;;;15.80;69.80;;;;;;5071019;28;20028;-75
2024/03/29 10:17:50;;;;;;;4.78;1.92;;;15.60;69.70;;;;;;5073378;28;20225;-77
2024/03/29 10:20:19;;;;;;;5.85;2.25;;;15.60;69.90;;;;;;5070239;28;20107;-78
2024/03/29 10:22:46;;;;;;;5.82;2.25;;;15.50;69.30;;;;;;5075267;28;20034;-78
2024/03/29 10:25:13;;;;;;;5.88;2.00;;;15.30;69.10;;;;;;5076874;28;20032;-79
2024/03/29 10:27:40;;;;;;;4.63;1.83;;;15.00;70.40;;;;;;5077559;28;20085;-79
2024/03/29 10:30:10;;;;;;;4.50;2.22;;;14.90;70.80;;;;;;5076301;28;20024;-79
2024/03/29 10:32:42;;;;;;;4.47;1.70;;;14.80;70.60;;;;;;5075732;28;20119;-78
2024/03/29 10:35:09;;;;;;;3.55;1.60;;;14.80;70.00;;;;;;5056955;28;21011;-80
2024/03/29 10:37:40;;;;;;;6.18;2.15;;;14.70;70.10;;;;;;5078859;28;20073;-79
2024/03/29 10:40:09;;;;;;;3.33;1.58;;;14.70;70.10;;;;;;5079163;28;20028;-78
2024/03/29 10:42:38;;;;;;;3.00;1.50;;;14.60;69.70;;;;;;5077168;28;20045;-78
2024/03/29 10:45:07;;;;;;;5.30;2.15;;;14.70;70.60;;;;;;5075456;28;20103;-78
2024/03/29 10:47:33;;;;;;;4.85;1.92;;;14.80;71.10;;;;;;5079722;28;20039;-79
2024/03/29 10:49:59;;;;;;;5.68;2.17;;;15.10;69.70;;;;;;5078560;28;20132;-79
2024/03/29 10:52:26;;;;;;;5.60;1.90;;;15.10;70.00;;;;;;5079917;28;20082;-78
2024/03/29 10:54:57;;;;;;;6.45;1.98;;;15.30;68.90;;;;;;5080049;28;20027;-79
2024/03/29 10:57:24;;;;;;;4.93;1.95;;;15.50;68.70;;;;;;5068194;28;20043;-79
2024/03/29 10:59:59;;;;;;;4.25;1.95;;;15.60;68.20;;;;;;5074957;28;20024;-78
2024/03/29 11:02:49;;;;;;;4.57;1.67;;;15.90;67.80;;;;;;5081081;28;20047;-78
2024/03/29 11:05:16;;;;;;;4.63;2.00;;;16.00;67.20;;;;;;5081874;28;20020;-79
2024/03/29 11:07:43;;;;;;;5.25;2.00;;;16.10;67.10;;;;;;5075702;28;20535;-76
2024/03/29 11:10:30;;;;;;;4.35;2.10;;;16.20;67.10;;;;;;5094003;28;20106;-79
2024/03/29 11:13:36;;;;;;;3.35;1.77;;;16.10;66.70;;;;;;5075523;28;20089;-80
2024/03/29 11:16:02;;;;;;;5.78;1.92;;;15.80;67.00;;;;;;5070316;28;20130;-78
2024/03/29 11:18:28;;;;;;;4.85;1.85;;;15.70;67.10;;;;;;5079721;28;20024;-76
2024/03/29 11:20:56;;;;;;;4.35;1.42;;;16.00;67.80;;;;;;5075873;28;20036;-75
2024/03/29 11:23:23;;;;;;;3.63;1.90;;;15.90;66.60;;;;;;5072592;28;20017;-75
2024/03/29 11:25:53;;;;;;;3.65;1.70;;;15.70;67.10;;;;;;5068488;28;20048;-78
2024/03/29 11:28:29;;;;;;;3.42;1.65;;;15.80;66.90;;;;;;5058233;28;20594;-80
2024/03/29 11:31:06;;;;;;;4.28;1.70;;;15.90;67.80;;;;;;5058743;28;20293;-81
2024/03/29 11:33:44;;;;;;;3.65;1.42;;;15.90;68.00;;;;;;5077719;28;20020;-82
2024/03/29 11:36:17;;;;;;;3.90;1.65;;;16.00;67.70;;;;;;5068716;28;20064;-79
2024/03/29 11:38:44;;;;;;;3.65;1.58;;;16.10;67.30;;;;;;5072510;28;20085;-79
2024/03/29 11:41:15;;;;;;;3.10;1.90;;;16.00;67.30;;;;;;5058426;28;20032;-80
2024/03/29 11:43:43;;;;;;;4.05;1.70;;;16.00;66.30;;;;;;5077654;28;20476;-82
2024/03/29 11:46:15;;;;;;;3.03;1.52;;;16.00;66.50;;;;;;5056738;28;20670;-80
2024/03/29 11:48:40;;;;;;;3.42;1.55;;;16.40;66.50;;;;;;5051117;28;20561;-80
2024/03/29 11:51:09;;;;;;;1.83;1.60;;;16.50;64.90;;;;;;5068614;28;20088;-80
2024/03/29 11:53:35;;;;;;;6.85;2.00;;;16.40;66.10;;;;;;5075591;28;20020;-80
2024/03/29 11:56:02;;;;;;;4.00;1.73;;;16.40;66.30;;;;;;5067669;28;20058;-80
2024/03/29 11:58:29;;;;;;;6.47;1.90;;;16.30;67.00;;;;;;5070663;28;20025;-80
2024/03/29 12:00:57;;;;;;;4.60;1.98;;;16.50;65.80;;;;;;5065512;28;20031;-81
2024/03/29 12:03:24;;;;;;;5.82;1.98;;;16.60;65.60;;;;;;5075138;28;20024;-78
2024/03/29 12:05:51;;;;;;;5.15;1.67;;;16.50;66.30;;;;;;5077247;28;20135;-78
2024/03/29 12:08:17;;;;;;;4.25;2.10;;;16.30;66.50;;;;;;5070668;28;20024;-81
2024/03/29 12:10:44;;;;;;;3.22;1.55;;;16.30;66.60;;;;;;5072611;28;20051;-80
2024/03/29 12:13:10;;;;;;;4.70;1.90;;;16.50;66.90;;;;;;5076262;28;20004;-80
2024/03/29 12:15:36;;;;;;;3.75;1.90;;;16.60;65.20;;;;;;5052710;28;20036;-79
2024/03/29 12:18:05;;;;;;;3.17;1.67;;;16.90;64.50;;;;;;5065392;28;20031;-79
2024/03/29 12:20:36;;;;;;;4.38;2.00;;;17.00;64.70;;;;;;5052103;28;20851;-79
2024/03/29 12:23:04;;;;;;;3.70;1.58;;;17.10;63.00;;;;;;5072797;28;20552;-77
2024/03/29 12:25:31;;;;;;;4.70;1.85;;;17.30;61.60;;;;;;5074916;28;20507;-79
2024/03/29 12:27:58;;;;;;;4.07;1.70;;;17.30;61.40;;;;;;5075770;28;20138;-79
2024/03/29 12:30:24;;;;;;;5.20;2.13;;;17.10;61.90;;;;;;5073280;28;20091;-79
2024/03/29 12:33:07;;;;;;;2.42;1.42;;;17.00;62.60;;;;;;5073641;28;20519;-79
2024/03/29 12:35:34;;;;;;;4.68;1.60;;;16.70;62.20;;;;;;5055815;28;20136;-81
2024/03/29 12:38:01;;;;;;;4.30;1.60;;;16.40;63.80;;;;;;5072257;28;20052;-79
2024/03/29 12:40:29;;;;;;;3.28;1.52;;;16.50;63.20;;;;;;5068900;28;20413;-78
2024/03/29 12:42:56;;;;;;;3.70;1.50;;;16.80;63.80;;;;;;5049454;28;20059;-79
2024/03/29 12:45:22;;;;;;;4.35;1.40;;;16.70;63.10;;;;;;5071764;28;20408;-80
2024/03/29 12:47:49;;;;;;;3.45;1.42;;;16.70;62.10;;;;;;5060836;28;20115;-81
2024/03/29 12:50:35;;;;;;;3.42;1.50;;;16.60;63.40;;;;;;5056252;28;20035;-81
2024/03/29 12:53:07;;;;;;;3.28;1.30;;;16.50;62.90;;;;;;5062322;28;20629;-81
2024/03/29 12:55:38;;;;;;;4.10;1.63;;;16.60;63.50;;;;;;5070537;28;21343;-80
2024/03/29 12:58:11;;;;;;;4.53;1.55;;;16.70;63.20;;;;;;5066122;28;20040;-81